Time;durP1;ratioP1;P1;durP2;ratioP2;P2;SDS_P1;SDS_P2;PMS_P1;PMS_P2;Temp;Humidity;BMP_temperature;BMP_pressure;BME280_temperature;BME280_humidity;BME280_pressure;Samples;Min_cycle;Max_cycle;Signal;HPM_P1;HPM_P2
2021/01/05 00:01:16;;;;;;;0.07;0.07;;;2.70;99.90;;;;;;5008427;28;22009;-83
2021/01/05 00:03:42;;;;;;;0.90;0.90;;;2.60;99.90;;;;;;5008741;28;20182;-82
2021/01/05 00:06:07;;;;;;;0.97;0.97;;;2.60;99.90;;;;;;5010749;28;20215;-83
2021/01/05 00:08:33;;;;;;;0.27;0.27;;;2.60;99.90;;;;;;5008071;28;20218;-83
2021/01/05 00:10:58;;;;;;;0.20;0.20;;;2.60;99.90;;;;;;5009331;28;20211;-83
2021/01/05 00:13:24;;;;;;;3.73;1.53;;;2.60;99.90;;;;;;5009794;28;20616;-83
2021/01/05 00:15:50;;;;;;;0.23;0.23;;;2.60;99.90;;;;;;5010420;28;20191;-82
2021/01/05 00:18:17;;;;;;;0.60;0.60;;;2.60;99.90;;;;;;5009756;28;20219;-83
2021/01/05 00:20:43;;;;;;;3.27;0.80;;;2.70;99.90;;;;;;5008172;28;20191;-83
2021/01/05 00:23:08;;;;;;;10.93;0.83;;;2.70;99.90;;;;;;5011351;28;20229;-83
2021/01/05 00:25:34;;;;;;;0.50;0.50;;;2.70;99.90;;;;;;5009690;28;20195;-83
2021/01/05 00:28:00;;;;;;;0.40;0.40;;;2.80;99.90;;;;;;5009063;28;20274;-83
2021/01/05 00:30:26;;;;;;;1.63;1.13;;;2.70;99.90;;;;;;5010964;28;20191;-83
2021/01/05 00:32:54;;;;;;;0.87;0.70;;;2.70;99.90;;;;;;5010025;28;20210;-84
2021/01/05 00:35:26;;;;;;;0.20;0.20;;;2.60;99.90;;;;;;5023316;28;20183;-84
2021/01/05 00:37:52;;;;;;;1.47;1.17;;;2.60;99.90;;;;;;5024671;28;20203;-84
2021/01/05 00:40:20;;;;;;;0.10;0.10;;;2.70;99.90;;;;;;5008766;28;20213;-84
2021/01/05 00:42:46;;;;;;;0.60;0.60;;;2.70;99.90;;;;;;5008699;28;20206;-84
2021/01/05 00:45:35;;;;;;;0.60;0.53;;;2.70;99.90;;;;;;5010679;28;20198;-84
2021/01/05 00:48:01;;;;;;;0.87;0.63;;;2.80;99.90;;;;;;4997849;28;20199;-84
2021/01/05 00:50:27;;;;;;;0.10;0.10;;;2.80;99.90;;;;;;5009284;28;20187;-84
2021/01/05 00:52:53;;;;;;;0.40;0.40;;;2.80;99.90;;;;;;5008785;28;20697;-84
2021/01/05 00:55:19;;;;;;;1.00;1.00;;;2.80;99.90;;;;;;5008900;28;20798;-84
2021/01/05 00:57:45;;;;;;;1.23;1.10;;;2.80;99.90;;;;;;5010655;28;20198;-83
2021/01/05 01:00:15;;;;;;;0.87;0.73;;;2.70;99.90;;;;;;5009137;28;20221;-85
2021/01/05 01:02:41;;;;;;;2.27;0.97;;;2.70;99.90;;;;;;5008180;28;20271;-85
2021/01/05 01:05:08;;;;;;;1.43;1.10;;;2.80;99.90;;;;;;5001390;28;20199;-85
2021/01/05 01:07:33;;;;;;;0.40;0.40;;;2.70;99.90;;;;;;5010595;28;20192;-84
2021/01/05 01:09:59;;;;;;;2.00;0.90;;;2.70;99.90;;;;;;5004916;28;20188;-84
2021/01/05 01:12:25;;;;;;;1.07;0.83;;;2.70;99.90;;;;;;5008870;28;20773;-84
2021/01/05 01:14:53;;;;;;;1.60;1.43;;;2.60;99.90;;;;;;5008798;28;20191;-84
2021/01/05 01:17:20;;;;;;;1.27;1.17;;;2.70;99.90;;;;;;5009330;28;20185;-85
2021/01/05 01:19:45;;;;;;;2.13;2.03;;;2.70;99.90;;;;;;5011310;28;20655;-85
2021/01/05 01:22:11;;;;;;;0.67;0.67;;;2.60;99.90;;;;;;5014033;28;20253;-84
2021/01/05 01:24:37;;;;;;;0.50;0.40;;;2.60;99.90;;;;;;5013096;28;20187;-84
2021/01/05 01:27:03;;;;;;;1.87;1.60;;;2.70;99.90;;;;;;5011886;28;20215;-84
2021/01/05 01:29:29;;;;;;;0.53;0.50;;;2.70;99.90;;;;;;5009050;28;20188;-84
2021/01/05 01:31:56;;;;;;;1.10;0.73;;;2.70;99.90;;;;;;5012014;28;20210;-84
2021/01/05 01:34:24;;;;;;;1.50;1.40;;;2.70;99.90;;;;;;5013005;28;20700;-84
2021/01/05 01:37:01;;;;;;;4.23;1.07;;;2.70;99.90;;;;;;5012376;28;20273;-84
2021/01/05 01:39:28;;;;;;;0.60;0.60;;;2.70;99.90;;;;;;5013358;28;20217;-83
2021/01/05 01:41:55;;;;;;;0.30;0.30;;;2.70;99.90;;;;;;5027281;28;20210;-84
2021/01/05 01:44:25;;;;;;;0.40;0.40;;;2.70;99.90;;;;;;5012036;28;20190;-83
2021/01/05 01:46:54;;;;;;;1.60;0.77;;;2.70;99.90;;;;;;5012492;28;20279;-84
2021/01/05 01:49:20;;;;;;;2.33;0.80;;;2.70;99.90;;;;;;5011559;28;20183;-83
2021/01/05 01:51:46;;;;;;;2.27;2.10;;;2.70;99.90;;;;;;5011845;28;20214;-84
2021/01/05 01:54:47;;;;;;;0.30;0.30;;;2.70;99.90;;;;;;5012377;28;20198;-84
2021/01/05 01:57:25;;;;;;;0.83;0.70;;;2.70;99.90;;;;;;5004970;28;20537;-84
2021/01/05 02:00:09;;;;;;;0.40;0.40;;;2.70;99.90;;;;;;5012251;28;20214;-84
2021/01/05 02:03:00;;;;;;;0.17;0.17;;;2.70;99.90;;;;;;5007297;28;20203;-84
2021/01/05 02:05:46;;;;;;;0.97;0.63;;;2.60;99.90;;;;;;5011221;28;20190;-84
2021/01/05 02:08:38;;;;;;;2.03;0.60;;;2.70;99.90;;;;;;5008763;28;20195;-84
2021/01/05 02:11:31;;;;;;;0.60;0.60;;;2.70;99.90;;;;;;5010409;28;20187;-85
2021/01/05 02:14:22;;;;;;;0.30;0.30;;;2.70;99.90;;;;;;5010882;28;20195;-84
2021/01/05 02:17:26;;;;;;;0.30;0.30;;;2.70;99.90;;;;;;5006999;28;20651;-83
2021/01/05 02:20:06;;;;;;;2.10;1.13;;;2.70;99.90;;;;;;5008675;28;20694;-84
2021/01/05 02:22:37;;;;;;;0.70;0.70;;;2.70;99.90;;;;;;5009480;28;20598;-84
2021/01/05 02:25:11;;;;;;;1.40;0.87;;;2.70;99.90;;;;;;5011326;28;21993;-84
2021/01/05 02:27:51;;;;;;;0.60;0.40;;;2.70;99.90;;;;;;5022021;28;20188;-84
2021/01/05 02:30:22;;;;;;;0.43;0.43;;;2.70;99.90;;;;;;5010988;28;20685;-83
2021/01/05 02:33:19;;;;;;;3.53;3.23;;;2.60;99.90;;;;;;5008728;28;20218;-83
2021/01/05 02:36:09;;;;;;;0.33;0.27;;;2.60;99.90;;;;;;5025156;28;20946;-84
2021/01/05 02:38:49;;;;;;;0.93;0.93;;;2.60;99.90;;;;;;5007249;28;20566;-84
2021/01/05 02:41:39;;;;;;;1.00;0.90;;;2.60;99.90;;;;;;5023211;28;20206;-85
2021/01/05 02:44:19;;;;;;;2.40;2.30;;;2.60;99.90;;;;;;5010412;28;20187;-84
2021/01/05 02:47:17;;;;;;;1.80;0.63;;;2.60;99.90;;;;;;5007622;28;20179;-84
2021/01/05 02:49:46;;;;;;;1.17;0.87;;;2.60;99.90;;;;;;5010451;28;20660;-84
2021/01/05 02:52:33;;;;;;;1.87;1.03;;;2.60;99.90;;;;;;5010648;28;20281;-83
2021/01/05 02:55:18;;;;;;;0.97;0.97;;;2.60;99.90;;;;;;5003141;28;20183;-83
2021/01/05 02:57:56;;;;;;;0.60;0.60;;;2.50;99.90;;;;;;5011066;28;20198;-84
2021/01/05 03:00:24;;;;;;;0.57;0.57;;;2.50;99.90;;;;;;5009431;28;20289;-84
2021/01/05 03:03:11;;;;;;;0.53;0.53;;;2.50;99.90;;;;;;5012295;28;20680;-84
2021/01/05 03:05:46;;;;;;;0.20;0.20;;;2.50;99.90;;;;;;5012134;28;20183;-84
2021/01/05 03:08:12;;;;;;;0.70;0.50;;;2.50;99.90;;;;;;5011223;28;20725;-84
2021/01/05 03:10:50;;;;;;;2.40;0.83;;;2.50;99.90;;;;;;5011056;28;20321;-84
2021/01/05 03:13:21;;;;;;;0.30;0.30;;;2.50;99.90;;;;;;5011048;28;20590;-84
2021/01/05 03:15:56;;;;;;;1.73;0.80;;;2.50;99.90;;;;;;5010838;28;20190;-84
2021/01/05 03:18:34;;;;;;;0.53;0.53;;;2.50;99.90;;;;;;5006122;28;20191;-84
2021/01/05 03:21:20;;;;;;;1.13;0.80;;;2.50;99.90;;;;;;5011111;28;20666;-84
2021/01/05 03:23:47;;;;;;;1.40;0.60;;;2.50;99.90;;;;;;5011619;28;20236;-84
2021/01/05 03:26:15;;;;;;;0.40;0.40;;;2.60;99.90;;;;;;5008484;28;20195;-84
2021/01/05 03:28:41;;;;;;;0.90;0.33;;;2.50;99.90;;;;;;5010523;28;20199;-84
2021/01/05 03:31:25;;;;;;;0.30;0.30;;;2.50;99.90;;;;;;5009766;28;20584;-84
2021/01/05 03:33:57;;;;;;;1.03;0.90;;;2.50;99.90;;;;;;4999686;28;20191;-84
2021/01/05 03:36:22;;;;;;;1.00;0.90;;;2.60;99.90;;;;;;5010766;28;20190;-84
2021/01/05 03:38:48;;;;;;;0.77;0.77;;;2.60;99.90;;;;;;5016373;28;20198;-84
2021/01/05 03:41:13;;;;;;;1.80;0.70;;;2.60;99.90;;;;;;5008417;28;20179;-83
2021/01/05 03:43:39;;;;;;;0.57;0.20;;;2.60;99.90;;;;;;5007759;28;20187;-83
2021/01/05 03:46:04;;;;;;;0.87;0.57;;;2.60;99.90;;;;;;5008446;28;20199;-84
2021/01/05 03:48:30;;;;;;;0.30;0.30;;;2.70;99.90;;;;;;5010259;28;20562;-83
2021/01/05 03:50:55;;;;;;;0.40;0.40;;;2.60;99.90;;;;;;5010440;28;20705;-84
2021/01/05 03:53:21;;;;;;;0.20;0.20;;;2.70;99.90;;;;;;5010783;28;20624;-84
2021/01/05 03:55:47;;;;;;;0.70;0.70;;;2.70;99.90;;;;;;5010344;28;20183;-84
2021/01/05 03:58:12;;;;;;;0.60;0.60;;;2.70;99.90;;;;;;5010658;28;20612;-84
2021/01/05 04:00:38;;;;;;;1.20;0.93;;;2.70;99.90;;;;;;5008541;28;20218;-84
2021/01/05 04:03:03;;;;;;;0.50;0.50;;;2.70;99.90;;;;;;5011096;28;20262;-84
2021/01/05 04:05:30;;;;;;;0.27;0.27;;;2.80;99.90;;;;;;5010388;28;20187;-83
2021/01/05 04:07:56;;;;;;;1.30;1.30;;;2.80;99.90;;;;;;5000797;28;20187;-83
2021/01/05 04:10:22;;;;;;;0.70;0.70;;;2.80;99.90;;;;;;5009617;28;20718;-84
2021/01/05 04:12:47;;;;;;;0.63;0.63;;;2.90;99.90;;;;;;5009525;28;20222;-83
2021/01/05 04:15:28;;;;;;;0.33;0.33;;;2.90;99.90;;;;;;5001124;28;20187;-83
2021/01/05 04:17:56;;;;;;;0.20;0.20;;;2.90;99.90;;;;;;5010529;28;20662;-83
2021/01/05 04:20:23;;;;;;;2.20;0.40;;;2.90;99.90;;;;;;5008846;28;20270;-84
2021/01/05 04:22:49;;;;;;;3.40;0.60;;;3.00;99.90;;;;;;5009696;28;20665;-84
2021/01/05 04:25:16;;;;;;;0.27;0.27;;;2.90;99.90;;;;;;5009399;28;20271;-84
2021/01/05 04:27:42;;;;;;;0.77;0.77;;;2.90;99.90;;;;;;5026409;28;20598;-83
2021/01/05 04:30:16;;;;;;;0.40;0.40;;;2.80;99.90;;;;;;5009506;28;20187;-84
2021/01/05 04:32:42;;;;;;;0.53;0.40;;;2.80;99.90;;;;;;5009337;28;20719;-84
2021/01/05 04:35:08;;;;;;;0.30;0.30;;;2.80;99.90;;;;;;5023878;28;20229;-84
2021/01/05 04:37:33;;;;;;;6.50;0.80;;;2.70;99.90;;;;;;5010769;28;20702;-84
2021/01/05 04:39:59;;;;;;;0.33;0.33;;;2.70;99.90;;;;;;5008957;28;20215;-84
2021/01/05 04:42:35;;;;;;;0.70;0.70;;;2.70;99.90;;;;;;5010466;28;20260;-84
2021/01/05 04:45:06;;;;;;;0.33;0.33;;;2.80;99.90;;;;;;5010102;28;20175;-84
2021/01/05 04:47:46;;;;;;;0.17;0.17;;;2.80;99.90;;;;;;5008747;28;20179;-84
2021/01/05 04:50:25;;;;;;;1.27;0.73;;;2.80;99.90;;;;;;5008655;28;20183;-83
2021/01/05 04:52:59;;;;;;;0.30;0.30;;;2.80;99.90;;;;;;5009980;28;20583;-83
2021/01/05 04:55:37;;;;;;;0.90;0.50;;;2.80;99.90;;;;;;5029925;28;20259;-84
2021/01/05 04:58:09;;;;;;;0.40;0.40;;;2.70;99.90;;;;;;5012895;28;20219;-83
2021/01/05 05:00:37;;;;;;;1.30;0.50;;;2.80;99.90;;;;;;5012765;28;20683;-84
2021/01/05 05:03:20;;;;;;;0.43;0.43;;;2.70;99.90;;;;;;5011985;28;20200;-84
2021/01/05 05:06:00;;;;;;;0.40;0.40;;;2.80;99.90;;;;;;5014418;28;20210;-84
2021/01/05 05:08:37;;;;;;;0.50;0.50;;;2.80;99.90;;;;;;5014848;28;20730;-84
2021/01/05 05:11:07;;;;;;;0.47;0.47;;;2.80;99.90;;;;;;5013665;28;20233;-84
2021/01/05 05:13:42;;;;;;;3.10;1.17;;;2.90;99.90;;;;;;5011716;28;20241;-84
2021/01/05 05:16:39;;;;;;;0.77;0.50;;;2.90;99.90;;;;;;5012506;28;20183;-84
2021/01/05 05:19:25;;;;;;;2.00;0.83;;;3.00;99.90;;;;;;5012995;28;20560;-84
2021/01/05 05:22:20;;;;;;;2.37;0.60;;;2.90;99.90;;;;;;5007725;28;20215;-84
2021/01/05 05:24:55;;;;;;;0.13;0.13;;;3.00;99.90;;;;;;4990472;28;20599;-84
2021/01/05 05:27:46;;;;;;;0.93;0.93;;;2.90;99.90;;;;;;5009902;28;20179;-85
2021/01/05 05:30:17;;;;;;;0.20;0.20;;;2.90;99.90;;;;;;5011792;28;20191;-84
2021/01/05 05:32:46;;;;;;;0.10;0.10;;;2.90;99.90;;;;;;5012912;28;20295;-84
2021/01/05 05:35:14;;;;;;;0.33;0.33;;;2.90;99.90;;;;;;5013956;28;20215;-85
2021/01/05 05:38:15;;;;;;;0.40;0.40;;;2.80;99.90;;;;;;5012287;28;20187;-83
2021/01/05 05:41:07;;;;;;;0.50;0.50;;;2.90;99.90;;;;;;4988080;28;20321;-85
2021/01/05 05:43:39;;;;;;;0.93;0.93;;;2.90;99.90;;;;;;5012379;28;20187;-84
2021/01/05 05:46:12;;;;;;;1.23;1.13;;;2.80;99.90;;;;;;5012112;28;20901;-84
2021/01/05 05:48:58;;;;;;;0.40;0.30;;;2.90;99.90;;;;;;5006541;28;20187;-84
2021/01/05 05:51:33;;;;;;;0.27;0.27;;;2.80;99.90;;;;;;5011805;28;20238;-84
2021/01/05 05:54:14;;;;;;;0.50;0.50;;;3.00;99.90;;;;;;5011931;28;20187;-83
2021/01/05 05:56:51;;;;;;;0.30;0.30;;;3.00;99.90;;;;;;5011647;28;20249;-84
2021/01/05 05:59:27;;;;;;;1.20;0.83;;;3.00;99.90;;;;;;5010716;28;20230;-82
2021/01/05 06:01:52;;;;;;;0.30;0.30;;;3.00;99.90;;;;;;5010080;28;20749;-84
2021/01/05 06:04:21;;;;;;;0.20;0.20;;;3.00;99.90;;;;;;5010769;28;20188;-81
2021/01/05 06:06:46;;;;;;;0.20;0.20;;;3.20;99.90;;;;;;5009387;28;20674;-81
2021/01/05 06:09:12;;;;;;;0.83;0.57;;;3.00;99.90;;;;;;5011100;28;20265;-84
2021/01/05 06:11:37;;;;;;;0.93;0.40;;;3.00;99.90;;;;;;5009931;28;20219;-83
2021/01/05 06:14:06;;;;;;;0.40;0.30;;;2.90;99.90;;;;;;5009328;28;20177;-85
2021/01/05 06:16:33;;;;;;;0.73;0.43;;;3.10;99.90;;;;;;5006732;28;20189;-84
2021/01/05 06:18:59;;;;;;;0.30;0.30;;;3.10;99.90;;;;;;5010646;28;20763;-83
2021/01/05 06:21:25;;;;;;;0.20;0.20;;;3.10;99.90;;;;;;5011402;28;20207;-84
2021/01/05 06:23:50;;;;;;;0.63;0.60;;;3.00;99.90;;;;;;5008765;28;20670;-84
2021/01/05 06:26:19;;;;;;;0.40;0.40;;;3.00;99.90;;;;;;5008547;28;20215;-84
2021/01/05 06:28:47;;;;;;;0.20;0.20;;;3.00;99.90;;;;;;5009483;28;20175;-84
2021/01/05 06:31:13;;;;;;;0.83;0.83;;;3.00;99.90;;;;;;5006388;28;20186;-82
2021/01/05 06:33:38;;;;;;;0.20;0.20;;;2.90;99.90;;;;;;5013192;28;20683;-82
2021/01/05 06:36:04;;;;;;;1.13;0.70;;;2.90;99.90;;;;;;5009849;28;20183;-84
2021/01/05 06:38:30;;;;;;;1.80;0.93;;;2.90;99.90;;;;;;5008417;28;20187;-84
2021/01/05 06:40:56;;;;;;;1.33;1.23;;;2.80;99.90;;;;;;5010425;28;20221;-84
2021/01/05 06:43:22;;;;;;;0.40;0.40;;;2.80;99.90;;;;;;5008979;28;20613;-84
2021/01/05 06:45:47;;;;;;;0.23;0.23;;;2.80;99.90;;;;;;5008554;28;20179;-84
2021/01/05 06:48:13;;;;;;;0.23;0.23;;;2.80;99.90;;;;;;5006662;28;20183;-84
2021/01/05 06:50:38;;;;;;;0.43;0.43;;;2.80;99.90;;;;;;5006741;28;20183;-85
2021/01/05 06:53:04;;;;;;;0.30;0.30;;;2.80;99.90;;;;;;5007173;28;20203;-85
2021/01/05 06:55:30;;;;;;;0.70;0.70;;;2.80;99.90;;;;;;5009968;28;20200;-83
2021/01/05 06:57:56;;;;;;;0.30;0.30;;;2.80;99.90;;;;;;5011677;28;20221;-84
2021/01/05 07:00:24;;;;;;;2.10;1.47;;;2.90;99.90;;;;;;5012685;28;20655;-83
2021/01/05 07:02:51;;;;;;;1.00;0.53;;;2.90;99.90;;;;;;5011373;28;20203;-84
2021/01/05 07:05:17;;;;;;;0.30;0.30;;;2.90;99.90;;;;;;5012700;28;20694;-84
2021/01/05 07:07:43;;;;;;;0.60;0.57;;;2.80;99.90;;;;;;5012810;28;20209;-84
2021/01/05 07:10:10;;;;;;;0.60;0.60;;;2.80;99.90;;;;;;5011449;28;20183;-84
2021/01/05 07:12:36;;;;;;;0.40;0.40;;;2.80;99.90;;;;;;5013935;28;20199;-83
2021/01/05 07:15:04;;;;;;;0.37;0.37;;;2.90;99.90;;;;;;5011300;28;20180;-84
2021/01/05 07:17:29;;;;;;;0.67;0.43;;;2.90;99.90;;;;;;5010960;28;20281;-84
2021/01/05 07:19:55;;;;;;;0.20;0.20;;;3.00;99.90;;;;;;5012130;28;20231;-84
2021/01/05 07:22:21;;;;;;;1.50;0.67;;;2.90;99.90;;;;;;5012350;28;20630;-83
2021/01/05 07:24:46;;;;;;;2.17;0.80;;;2.90;99.90;;;;;;5006785;28;20731;-84
2021/01/05 07:27:12;;;;;;;0.43;0.43;;;2.90;99.90;;;;;;5008023;28;20262;-84
2021/01/05 07:29:38;;;;;;;1.23;1.00;;;3.00;99.90;;;;;;5006090;28;20217;-83
2021/01/05 07:32:03;;;;;;;0.40;0.40;;;3.10;99.90;;;;;;5012329;28;20199;-83
2021/01/05 07:34:29;;;;;;;0.93;0.90;;;3.00;99.90;;;;;;5010932;28;20188;-84
2021/01/05 07:37:01;;;;;;;3.30;1.00;;;3.00;99.90;;;;;;5012542;28;20660;-84
2021/01/05 07:39:30;;;;;;;1.60;1.13;;;3.00;99.90;;;;;;5016243;28;20214;-84
2021/01/05 07:42:15;;;;;;;0.37;0.37;;;3.10;99.90;;;;;;5010742;28;20206;-83
2021/01/05 07:44:42;;;;;;;0.47;0.47;;;3.20;99.90;;;;;;5008914;28;20218;-83
2021/01/05 07:47:08;;;;;;;0.70;0.70;;;3.10;99.90;;;;;;5010901;28;20182;-84
2021/01/05 07:49:34;;;;;;;0.50;0.50;;;3.20;99.90;;;;;;5012944;28;20199;-84
2021/01/05 07:52:00;;;;;;;0.33;0.33;;;3.20;99.90;;;;;;5012500;28;20214;-83
2021/01/05 07:54:26;;;;;;;1.70;0.57;;;3.30;99.90;;;;;;5008725;28;20189;-82
2021/01/05 07:56:51;;;;;;;0.53;0.53;;;3.20;99.90;;;;;;5006797;28;20187;-84
2021/01/05 07:59:18;;;;;;;2.73;2.57;;;3.10;99.90;;;;;;5023459;28;20702;-81
2021/01/05 08:01:45;;;;;;;0.83;0.83;;;3.20;99.90;;;;;;5012223;28;20265;-82
2021/01/05 08:04:11;;;;;;;0.40;0.40;;;3.20;99.90;;;;;;5012753;28;20185;-83
2021/01/05 08:06:41;;;;;;;1.07;0.97;;;3.20;99.90;;;;;;5011422;28;20183;-82
2021/01/05 08:09:07;;;;;;;0.30;0.30;;;3.30;99.90;;;;;;5012222;28;20846;-82
2021/01/05 08:11:37;;;;;;;1.03;0.93;;;3.20;99.90;;;;;;5010562;28;20305;-82
2021/01/05 08:14:04;;;;;;;0.27;0.27;;;3.30;99.90;;;;;;5011225;28;20302;-82
2021/01/05 08:16:29;;;;;;;2.00;1.90;;;3.20;99.90;;;;;;5011001;28;20202;-83
2021/01/05 08:18:55;;;;;;;0.40;0.40;;;3.20;99.90;;;;;;5010456;28;20187;-82
2021/01/05 08:21:24;;;;;;;0.43;0.43;;;3.10;99.90;;;;;;5011761;28;20222;-82
2021/01/05 08:23:50;;;;;;;1.20;1.20;;;3.10;99.90;;;;;;5007332;28;20197;-82
2021/01/05 08:26:16;;;;;;;0.57;0.57;;;3.10;99.90;;;;;;5011337;28;20780;-82
2021/01/05 08:28:42;;;;;;;0.17;0.17;;;3.10;99.90;;;;;;5009390;28;20258;-82
2021/01/05 08:31:08;;;;;;;2.03;1.70;;;3.10;99.90;;;;;;5011350;28;20675;-82
2021/01/05 08:33:33;;;;;;;0.13;0.13;;;3.00;99.90;;;;;;4997090;28;20270;-82
2021/01/05 08:35:59;;;;;;;1.23;0.77;;;3.10;99.90;;;;;;5010371;28;20191;-82
2021/01/05 08:38:25;;;;;;;1.23;0.47;;;3.10;99.90;;;;;;5014324;28;20187;-82
2021/01/05 08:40:50;;;;;;;0.13;0.13;;;3.10;99.90;;;;;;5010811;28;20225;-82
2021/01/05 08:43:16;;;;;;;0.30;0.10;;;3.20;99.90;;;;;;5009980;28;20745;-82
2021/01/05 08:45:41;;;;;;;0.70;0.70;;;3.30;99.90;;;;;;5009824;28;20195;-82
2021/01/05 08:48:08;;;;;;;3.00;0.30;;;3.30;99.90;;;;;;5009711;28;20213;-83
2021/01/05 08:50:34;;;;;;;0.00;0.00;;;3.40;99.90;;;;;;5009921;28;20191;-83
2021/01/05 08:53:08;;;;;;;0.93;0.37;;;3.40;99.90;;;;;;5017135;28;20206;-82
2021/01/05 08:55:38;;;;;;;2.03;1.07;;;3.60;99.90;;;;;;5008242;28;20211;-83
2021/01/05 08:58:04;;;;;;;1.30;1.23;;;3.50;99.90;;;;;;5005474;28;20184;-83
2021/01/05 09:00:30;;;;;;;0.77;0.40;;;3.40;99.90;;;;;;5007937;28;20682;-82
2021/01/05 09:02:56;;;;;;;0.83;0.83;;;3.40;99.90;;;;;;5009405;28;20238;-83
2021/01/05 09:05:23;;;;;;;0.30;0.30;;;3.20;99.90;;;;;;5006828;28;20185;-83
2021/01/05 09:07:49;;;;;;;0.30;0.30;;;3.20;99.90;;;;;;5009701;28;20190;-83
2021/01/05 09:10:19;;;;;;;2.80;1.23;;;3.10;99.90;;;;;;5006245;28;20191;-83
2021/01/05 09:12:44;;;;;;;0.60;0.30;;;3.10;99.90;;;;;;4992965;28;20238;-82
2021/01/05 09:15:16;;;;;;;3.27;0.87;;;3.20;99.90;;;;;;5008772;28;20262;-82
2021/01/05 09:17:49;;;;;;;5.33;1.27;;;3.10;99.90;;;;;;5006449;28;20187;-82
2021/01/05 09:20:17;;;;;;;0.60;0.60;;;3.10;99.90;;;;;;5008483;28;20667;-83
2021/01/05 09:22:43;;;;;;;0.40;0.40;;;3.10;99.90;;;;;;5009325;28;20211;-82
2021/01/05 09:25:09;;;;;;;0.63;0.43;;;3.10;99.90;;;;;;5009251;28;20186;-82
2021/01/05 09:27:35;;;;;;;0.30;0.30;;;3.20;99.90;;;;;;5009018;28;20175;-82
2021/01/05 09:30:01;;;;;;;0.40;0.40;;;3.40;99.90;;;;;;5005266;28;20604;-82
2021/01/05 09:32:26;;;;;;;0.40;0.40;;;3.40;99.90;;;;;;5000079;28;20263;-82
2021/01/05 09:34:52;;;;;;;0.27;0.27;;;3.40;99.90;;;;;;5009711;28;20192;-82
2021/01/05 09:37:17;;;;;;;0.20;0.20;;;3.30;99.90;;;;;;5009826;28;20187;-81
2021/01/05 09:39:43;;;;;;;0.13;0.13;;;3.40;99.90;;;;;;5010397;28;20261;-82
2021/01/05 09:42:09;;;;;;;1.37;1.27;;;3.40;99.90;;;;;;5011903;28;20235;-82
2021/01/05 09:44:34;;;;;;;2.53;1.03;;;3.40;99.90;;;;;;5011744;28;20190;-82
2021/01/05 09:47:02;;;;;;;0.10;0.10;;;3.40;99.90;;;;;;5012045;28;20183;-81
2021/01/05 09:49:29;;;;;;;0.43;0.43;;;3.40;99.90;;;;;;5008433;28;20187;-82
2021/01/05 09:51:59;;;;;;;1.13;1.03;;;3.40;99.90;;;;;;5013364;28;20203;-82
2021/01/05 09:54:25;;;;;;;0.83;0.60;;;3.30;99.90;;;;;;5011761;28;20198;-82
2021/01/05 09:56:52;;;;;;;0.53;0.20;;;3.30;99.90;;;;;;5012485;28;21916;-82
2021/01/05 09:59:20;;;;;;;0.50;0.50;;;3.30;99.90;;;;;;5012591;28;20691;-82
2021/01/05 10:01:46;;;;;;;0.80;0.80;;;3.30;99.90;;;;;;5010618;28;20615;-82
2021/01/05 10:04:11;;;;;;;0.50;0.20;;;3.30;99.90;;;;;;5012268;28;20274;-83
2021/01/05 10:06:37;;;;;;;0.10;0.10;;;3.30;99.90;;;;;;5012662;28;20214;-82
2021/01/05 10:09:08;;;;;;;0.63;0.43;;;3.40;99.90;;;;;;5011022;28;20941;-82
2021/01/05 10:11:43;;;;;;;0.60;0.60;;;3.40;99.90;;;;;;5014399;28;20209;-82
2021/01/05 10:14:11;;;;;;;0.30;0.30;;;3.40;99.90;;;;;;5014416;28;20554;-82
2021/01/05 10:16:36;;;;;;;1.17;0.70;;;3.50;99.90;;;;;;5014061;28;20268;-82
2021/01/05 10:19:02;;;;;;;1.10;0.77;;;3.50;99.90;;;;;;5013149;28;20282;-82
2021/01/05 10:21:46;;;;;;;3.13;0.67;;;3.60;99.90;;;;;;5011822;28;20724;-82
2021/01/05 10:24:13;;;;;;;0.60;0.60;;;3.50;99.90;;;;;;5011193;28;20183;-82
2021/01/05 10:26:39;;;;;;;0.50;0.47;;;3.50;99.90;;;;;;5009391;28;20194;-82
2021/01/05 10:29:06;;;;;;;0.10;0.10;;;3.60;99.90;;;;;;5012494;28;20184;-82
2021/01/05 10:31:45;;;;;;;0.40;0.40;;;3.70;99.90;;;;;;5010799;28;20215;-82
2021/01/05 10:34:13;;;;;;;0.50;0.50;;;3.60;99.90;;;;;;5010880;28;20185;-82
2021/01/05 10:36:39;;;;;;;1.43;0.47;;;3.50;99.90;;;;;;5012321;28;20198;-82
2021/01/05 10:39:10;;;;;;;1.07;0.63;;;3.60;99.90;;;;;;5016167;28;20290;-82
2021/01/05 10:41:41;;;;;;;0.60;0.60;;;3.60;99.90;;;;;;5009106;28;20742;-82
2021/01/05 10:44:08;;;;;;;0.47;0.47;;;3.60;99.90;;;;;;5009520;28;20183;-82
2021/01/05 10:46:33;;;;;;;0.67;0.67;;;3.70;99.90;;;;;;5023361;28;20647;-83
2021/01/05 10:48:59;;;;;;;0.30;0.30;;;3.60;99.90;;;;;;5028570;28;20241;-82
2021/01/05 10:51:25;;;;;;;0.10;0.10;;;3.80;99.90;;;;;;5011156;28;20866;-83
2021/01/05 10:53:51;;;;;;;0.97;0.40;;;3.80;99.90;;;;;;5010799;28;20234;-82
2021/01/05 10:56:18;;;;;;;1.00;0.53;;;3.70;99.90;;;;;;5011429;28;20679;-82
2021/01/05 10:58:44;;;;;;;0.30;0.30;;;3.80;99.90;;;;;;5024900;28;20183;-82
2021/01/05 11:01:10;;;;;;;8.17;1.20;;;3.90;99.90;;;;;;5022857;28;20210;-82
2021/01/05 11:03:36;;;;;;;1.30;0.93;;;3.90;99.90;;;;;;5011757;28;20199;-81
2021/01/05 11:06:11;;;;;;;1.80;0.90;;;3.90;99.90;;;;;;5013004;28;20179;-82
2021/01/05 11:08:37;;;;;;;1.17;0.60;;;3.90;99.90;;;;;;5007501;28;20188;-82
2021/01/05 11:11:04;;;;;;;0.80;0.80;;;3.90;99.90;;;;;;5007269;28;20212;-82
2021/01/05 11:13:31;;;;;;;1.17;0.60;;;3.90;99.90;;;;;;5009681;28;20281;-82
2021/01/05 11:15:57;;;;;;;0.20;0.20;;;4.00;99.90;;;;;;5007729;28;20598;-81
2021/01/05 11:18:23;;;;;;;2.70;1.77;;;4.00;99.90;;;;;;5015905;28;20287;-82
2021/01/05 11:20:49;;;;;;;2.37;1.17;;;3.90;99.90;;;;;;5005520;28;20616;-82
2021/01/05 11:23:15;;;;;;;0.50;0.50;;;3.90;99.90;;;;;;5007849;28;20236;-82
2021/01/05 11:25:40;;;;;;;1.30;1.20;;;4.00;99.90;;;;;;5008484;28;20185;-82
2021/01/05 11:28:06;;;;;;;0.57;0.57;;;3.90;99.90;;;;;;5011536;28;20211;-82
2021/01/05 11:30:33;;;;;;;0.73;0.40;;;3.90;99.90;;;;;;5009569;28;20191;-82
2021/01/05 11:32:58;;;;;;;0.60;0.60;;;3.90;99.90;;;;;;5005608;28;20204;-82
2021/01/05 11:35:24;;;;;;;0.83;0.83;;;3.90;99.90;;;;;;5008479;28;20271;-82
2021/01/05 11:37:49;;;;;;;1.43;1.33;;;3.90;99.90;;;;;;5007183;28;20193;-82
2021/01/05 11:40:16;;;;;;;4.53;0.93;;;3.90;99.90;;;;;;5005846;28;20204;-82
2021/01/05 11:42:42;;;;;;;0.20;0.20;;;4.00;99.90;;;;;;5010739;28;20206;-82
2021/01/05 11:45:09;;;;;;;1.10;0.73;;;3.90;99.90;;;;;;5007877;28;20196;-81
2021/01/05 11:47:35;;;;;;;3.80;0.73;;;3.90;99.90;;;;;;5004859;28;20197;-82
2021/01/05 11:50:00;;;;;;;2.77;0.70;;;3.90;99.90;;;;;;5008643;28;20203;-82
2021/01/05 11:52:26;;;;;;;0.87;0.87;;;3.90;99.90;;;;;;5009672;28;20220;-81
2021/01/05 11:54:52;;;;;;;0.60;0.60;;;3.90;99.90;;;;;;5008302;28;20253;-82
2021/01/05 11:57:18;;;;;;;0.20;0.20;;;4.00;99.90;;;;;;5008541;28;20195;-82
2021/01/05 11:59:43;;;;;;;0.83;0.80;;;4.00;99.90;;;;;;5009576;28;20211;-82
2021/01/05 12:02:09;;;;;;;0.50;0.50;;;4.00;99.90;;;;;;5003439;28;20208;-82
2021/01/05 12:04:35;;;;;;;1.17;0.47;;;4.00;99.90;;;;;;5004059;28;20324;-82
2021/01/05 12:07:00;;;;;;;1.27;1.00;;;3.90;99.90;;;;;;5009850;28;20700;-81
2021/01/05 12:09:28;;;;;;;2.20;0.70;;;3.90;99.90;;;;;;5008389;28;20199;-82
2021/01/05 12:12:00;;;;;;;2.03;0.57;;;3.80;99.90;;;;;;5006602;28;20302;-81
2021/01/05 12:14:27;;;;;;;4.23;0.83;;;3.90;99.90;;;;;;5002877;28;20247;-82
2021/01/05 12:16:56;;;;;;;0.40;0.30;;;4.00;99.90;;;;;;5009815;28;20605;-83
2021/01/05 12:19:36;;;;;;;0.53;0.53;;;4.10;99.90;;;;;;5004859;28;20220;-82
2021/01/05 12:22:03;;;;;;;0.87;0.87;;;4.00;99.90;;;;;;5022037;28;20216;-82
2021/01/05 12:24:30;;;;;;;1.43;0.77;;;4.00;99.90;;;;;;5005552;28;20275;-82
2021/01/05 12:27:01;;;;;;;1.80;0.73;;;4.00;99.90;;;;;;5001617;28;20741;-82
2021/01/05 12:29:30;;;;;;;1.93;1.10;;;4.10;99.90;;;;;;5005948;28;20669;-83
2021/01/05 12:32:01;;;;;;;1.83;1.10;;;4.20;99.90;;;;;;5006082;28;20302;-83
2021/01/05 12:34:29;;;;;;;0.83;0.83;;;4.00;99.90;;;;;;5005265;28;20192;-83
2021/01/05 12:36:58;;;;;;;2.07;1.97;;;4.10;99.90;;;;;;5005883;28;20194;-84
2021/01/05 12:39:33;;;;;;;1.70;0.93;;;4.00;99.90;;;;;;5010027;28;20248;-84
2021/01/05 12:42:13;;;;;;;0.93;0.93;;;4.00;99.90;;;;;;5010110;28;20206;-84
2021/01/05 12:44:39;;;;;;;0.50;0.40;;;4.00;99.90;;;;;;5008453;28;20189;-84
2021/01/05 12:47:05;;;;;;;1.30;1.27;;;3.90;99.90;;;;;;5008723;28;20186;-84
2021/01/05 12:49:31;;;;;;;4.13;1.00;;;3.90;99.90;;;;;;5008377;28;20667;-84
2021/01/05 12:51:56;;;;;;;0.63;0.60;;;4.10;99.90;;;;;;5008914;28;20290;-85
2021/01/05 12:54:24;;;;;;;1.27;1.10;;;4.10;99.90;;;;;;5008208;28;20279;-84
2021/01/05 12:56:52;;;;;;;1.27;0.70;;;4.10;99.90;;;;;;5025194;28;20196;-84
2021/01/05 12:59:18;;;;;;;0.20;0.20;;;4.20;99.90;;;;;;5008608;28;20217;-84
2021/01/05 13:01:44;;;;;;;0.43;0.33;;;4.10;99.90;;;;;;5010349;28;20216;-84
2021/01/05 13:04:10;;;;;;;0.20;0.13;;;4.10;99.90;;;;;;5011089;28;20262;-85
2021/01/05 13:06:36;;;;;;;0.83;0.83;;;4.10;99.90;;;;;;5008524;28;20282;-84
2021/01/05 13:09:04;;;;;;;1.80;1.80;;;4.00;99.90;;;;;;5009764;28;20319;-84
2021/01/05 13:11:30;;;;;;;0.40;0.40;;;3.90;99.90;;;;;;5010380;28;20710;-83